Hlavní strana
METAR-TAF:

METAR-TAF

Letiště :

Pula, Chorvatsko

zeměpisná šířka: 44-54N, zeměpisná délka: 013-55E, výška: 63 m

Aktuální stav počasí

Zpráva byla vytvořena před 24 minutami, v 04:30 UTC
vítr z různých směrů 2 kt
Teplota 19°C
Vlhkost vzduchu 78%
Tlak 1018 hPa
Viditelnost 10 km a více
Žádná oblačnost pod 1500 m, nevyskytují se cumulonimby.

METAR: LDPL 270430Z VRB02KT CAVOK 19/15 Q1018 NOSIG

Čas: 06:54 (04:54 UTC)

Předpověď počasí

Zpráva byla vytvořena před 5 hodinami a 29 minutami, v 23:25 UTC
Předpověď platná od 27 v 00 UTC do 28 v 00 UTC
Východoseverovýchodní vítr 5 kt
Viditelnost 10 km a více
Žádná oblačnost pod 1500 m, nevyskytují se cumulonimby.
Změna
od 27 v 10 UTC do 27 v 12 UTC
Západní vítr 8 kt
Změna
od 27 v 16 UTC do 27 v 18 UTC
vítr z různých směrů 2 kt

TAF: LDPL 262325Z 2700/2800 07005KT CAVOK TX28/2713Z TN18/2703Z BECMG 2710/2712 28008KT BECMG 2716/2718 VRB02KT

Stav a předpovědi počasí z více než 4 000 letišť (zprávy METAR a TAF).

Červené a žluté tečky na mapě představují dostupné meteorologické stanice.

Když kurzor umístíte na tečku, zobrazí se název stanice.

Pak kliknutím zobrazíte stav a předpověď počasí.

Chcete-li změnit mapu, kliknutím na zelené tlačítko se znaménkem +mapu přiblížíte, kliknutím na zelené tlačítko se znaménkem – mapu oddálíte a kliknutím na zelené šipky přejdete na sousední mapy.


METAR-TAF: